createdAt,value
2019-02-11T00:00:15.387Z,0.57
2019-02-11T00:02:46.184Z,0.60
2019-02-11T00:05:15.356Z,0.60
2019-02-11T00:07:44.559Z,0.50
2019-02-11T00:10:14.020Z,0.67
2019-02-11T00:12:43.215Z,0.60
2019-02-11T00:15:12.423Z,0.77
2019-02-11T00:17:41.579Z,0.90
2019-02-11T00:20:10.840Z,0.77
2019-02-11T00:22:39.999Z,1.00
2019-02-11T00:25:09.172Z,0.53
2019-02-11T00:27:38.375Z,0.50
2019-02-11T00:30:09.821Z,0.90
2019-02-11T00:32:38.975Z,0.70
2019-02-11T00:35:08.144Z,0.90
2019-02-11T00:37:37.314Z,0.90
2019-02-11T00:40:07.642Z,0.73
2019-02-11T00:42:38.116Z,0.60
2019-02-11T00:45:08.745Z,0.53
2019-02-11T00:47:37.968Z,0.80
2019-02-11T00:50:09.973Z,0.73
2019-02-11T00:52:39.180Z,0.63
2019-02-11T00:55:08.335Z,0.70
2019-02-11T00:57:37.524Z,0.83
2019-02-11T01:00:09.957Z,0.97
2019-02-11T01:02:39.144Z,0.50
2019-02-11T01:05:08.309Z,0.80
2019-02-11T01:07:37.496Z,0.73
2019-02-11T01:10:09.090Z,0.60
2019-02-11T01:12:38.273Z,0.70
2019-02-11T01:15:09.669Z,0.50
2019-02-11T01:17:38.860Z,0.63
2019-02-11T01:20:10.368Z,0.80
2019-02-11T01:22:39.548Z,0.60
2019-02-11T01:25:09.056Z,0.60
2019-02-11T01:27:38.207Z,0.50
2019-02-11T01:30:10.364Z,0.40
2019-02-11T01:32:39.541Z,0.50
2019-02-11T01:35:08.732Z,0.40
2019-02-11T01:37:37.895Z,0.60
2019-02-11T01:40:09.714Z,0.43
2019-02-11T01:42:38.880Z,0.60
2019-02-11T01:45:10.799Z,0.40
2019-02-11T01:47:39.974Z,0.40
2019-02-11T01:50:11.284Z,0.40
2019-02-11T01:52:41.485Z,0.40
2019-02-11T01:55:10.679Z,0.43
2019-02-11T01:57:39.836Z,0.40
2019-02-11T02:00:13.519Z,0.50
2019-02-11T02:02:42.710Z,0.50
2019-02-11T02:05:11.915Z,0.30
2019-02-11T02:07:41.125Z,0.40
2019-02-11T02:10:13.036Z,0.37
2019-02-11T02:12:42.204Z,0.40
2019-02-11T02:15:13.715Z,0.40
2019-02-11T02:17:42.883Z,0.40
2019-02-11T02:20:15.117Z,0.30
2019-02-11T02:22:44.281Z,0.40
2019-02-11T02:25:13.458Z,0.30
2019-02-11T02:27:42.640Z,0.33
2019-02-11T02:30:14.959Z,0.30
2019-02-11T02:32:44.465Z,0.40
2019-02-11T02:35:13.784Z,0.43
2019-02-11T02:37:43.097Z,0.43
2019-02-11T02:40:12.324Z,0.40
2019-02-11T02:42:41.552Z,0.50
2019-02-11T02:45:10.850Z,0.40
2019-02-11T02:47:40.139Z,0.40
2019-02-11T02:50:09.908Z,0.50
2019-02-11T02:52:39.541Z,0.40
2019-02-11T02:55:08.990Z,0.40
2019-02-11T02:57:38.303Z,0.60
2019-02-11T03:00:10.188Z,0.30
2019-02-11T03:02:39.404Z,0.30
2019-02-11T03:05:09.744Z,0.43
2019-02-11T03:07:38.982Z,0.30
2019-02-11T03:10:10.114Z,0.40
2019-02-11T03:12:39.344Z,0.40
2019-02-11T03:15:10.982Z,0.40
2019-02-11T03:17:41.245Z,0.40
2019-02-11T03:20:10.684Z,0.43
2019-02-11T03:22:39.875Z,0.30
2019-02-11T03:25:09.383Z,0.40
2019-02-11T03:27:38.605Z,0.30
2019-02-11T03:30:10.237Z,0.40
2019-02-11T03:32:39.433Z,0.40
2019-02-11T03:35:08.669Z,0.30
2019-02-11T03:37:37.865Z,0.30
2019-02-11T03:40:09.439Z,0.30
2019-02-11T03:42:38.641Z,0.30
2019-02-11T03:45:12.388Z,0.30
2019-02-11T03:47:41.603Z,0.33
2019-02-11T03:50:11.772Z,0.30
2019-02-11T03:52:40.968Z,0.30
2019-02-11T03:55:10.199Z,0.30
2019-02-11T03:57:39.415Z,0.30
2019-02-11T04:00:11.516Z,0.30
2019-02-11T04:02:40.737Z,0.47
2019-02-11T04:05:10.008Z,0.50
2019-02-11T04:07:39.223Z,0.50
2019-02-11T04:10:11.728Z,0.70
2019-02-11T04:12:40.938Z,0.50
2019-02-11T04:15:10.339Z,0.73
2019-02-11T04:17:39.573Z,1.03
2019-02-11T04:20:09.143Z,2.47
2019-02-11T04:22:38.344Z,1.00
2019-02-11T04:25:07.944Z,1.00
2019-02-11T04:27:37.151Z,0.80
2019-02-11T04:30:09.229Z,0.80
2019-02-11T04:32:38.486Z,0.70
2019-02-11T04:35:08.892Z,0.90
2019-02-11T04:37:38.100Z,0.93
2019-02-11T04:40:10.165Z,0.70
2019-02-11T04:42:40.369Z,0.60
2019-02-11T04:45:10.424Z,1.60
2019-02-11T04:47:39.657Z,1.40
2019-02-11T04:50:09.908Z,0.90
2019-02-11T04:52:40.259Z,1.10
2019-02-11T04:55:10.243Z,1.37
2019-02-11T04:57:40.583Z,1.33
2019-02-11T05:00:11.925Z,1.40
2019-02-11T05:02:41.150Z,1.23
2019-02-11T05:05:10.899Z,1.07
2019-02-11T05:07:40.135Z,1.07
2019-02-11T05:10:14.269Z,1.67
2019-02-11T05:12:43.499Z,1.30
2019-02-11T05:15:12.702Z,1.47
2019-02-11T05:17:41.960Z,1.37
2019-02-11T05:20:12.293Z,1.07
2019-02-11T05:22:41.537Z,1.30
2019-02-11T05:25:10.767Z,1.00
2019-02-11T05:27:40.103Z,0.93
2019-02-11T05:30:11.068Z,1.30
2019-02-11T05:32:40.275Z,1.40
2019-02-11T05:35:09.579Z,1.27
2019-02-11T05:37:38.816Z,1.30
2019-02-11T05:40:11.259Z,1.07
2019-02-11T05:42:40.455Z,1.10
2019-02-11T05:45:09.691Z,1.00
2019-02-11T05:47:38.967Z,1.00
2019-02-11T05:50:10.704Z,1.33
2019-02-11T05:52:39.979Z,1.30
2019-02-11T05:55:09.327Z,1.30
2019-02-11T05:57:38.624Z,1.43
2019-02-11T06:00:11.690Z,2.13
2019-02-11T06:02:40.920Z,1.77
2019-02-11T06:05:10.128Z,1.70
2019-02-11T06:07:39.352Z,2.03
2019-02-11T06:10:10.427Z,2.40
2019-02-11T06:12:39.668Z,2.27
2019-02-11T06:15:09.505Z,2.77
2019-02-11T06:17:38.768Z,2.73
2019-02-11T06:20:09.645Z,3.03
2019-02-11T06:22:38.871Z,3.20
2019-02-11T06:25:08.453Z,3.53
2019-02-11T06:27:37.694Z,3.20
2019-02-11T06:30:12.090Z,3.30
2019-02-11T06:32:41.312Z,3.20
2019-02-11T06:35:10.688Z,3.20
2019-02-11T06:37:39.916Z,3.10
2019-02-11T06:40:10.556Z,3.90
2019-02-11T06:42:39.990Z,4.67
2019-02-11T06:45:13.205Z,4.00
2019-02-11T06:47:41.396Z,3.30
2019-02-11T06:50:13.727Z,4.03
2019-02-11T06:52:43.928Z,3.23
2019-02-11T06:55:13.173Z,3.80
2019-02-11T06:57:43.292Z,3.73
2019-02-11T07:00:15.957Z,4.10
2019-02-11T07:02:45.147Z,3.73
2019-02-11T07:05:14.547Z,3.67
2019-02-11T07:07:43.752Z,4.03
2019-02-11T07:10:15.948Z,3.33
2019-02-11T07:12:45.137Z,3.80
2019-02-11T07:15:21.901Z,3.50
2019-02-11T07:17:46.107Z,4.37
2019-02-11T07:20:15.330Z,3.80
2019-02-11T07:22:44.820Z,3.50
2019-02-11T07:25:14.052Z,3.73
2019-02-11T07:27:43.279Z,3.67
2019-02-11T07:30:15.847Z,3.03
2019-02-11T07:32:45.048Z,4.30
2019-02-11T07:35:14.288Z,3.27
2019-02-11T07:37:43.565Z,3.83
2019-02-11T07:40:12.808Z,3.80
2019-02-11T07:42:43.658Z,3.80
2019-02-11T07:45:14.585Z,4.03
2019-02-11T07:47:43.809Z,4.03
2019-02-11T07:50:13.104Z,3.67
2019-02-11T07:52:42.330Z,3.40
2019-02-11T07:55:12.192Z,3.33
2019-02-11T07:57:41.436Z,3.23
2019-02-11T08:00:10.723Z,3.10
2019-02-11T08:02:39.939Z,3.60
2019-02-11T08:05:09.204Z,2.77
2019-02-11T08:07:38.435Z,3.47
2019-02-11T08:10:08.107Z,3.47
2019-02-11T08:12:37.344Z,3.30
2019-02-11T08:15:08.816Z,3.20
2019-02-11T08:17:38.007Z,3.33
2019-02-11T08:20:10.314Z,2.90
2019-02-11T08:22:39.511Z,3.60
2019-02-11T08:25:08.753Z,3.43
2019-02-11T08:27:37.951Z,3.37
2019-02-11T08:30:10.498Z,3.17
2019-02-11T08:32:39.780Z,3.70
2019-02-11T08:35:09.011Z,3.50
2019-02-11T08:37:38.243Z,3.00
2019-02-11T08:40:09.277Z,3.47
2019-02-11T08:42:38.600Z,2.80
2019-02-11T08:45:10.199Z,2.90
2019-02-11T08:47:39.442Z,3.23
2019-02-11T08:50:09.512Z,2.63
2019-02-11T08:52:38.814Z,2.93
2019-02-11T08:55:08.645Z,2.30
2019-02-11T08:57:37.874Z,2.20
2019-02-11T09:00:10.398Z,3.33
2019-02-11T09:02:39.780Z,3.60
2019-02-11T09:05:09.068Z,2.77
2019-02-11T09:07:38.289Z,2.30
2019-02-11T09:10:10.428Z,2.73
2019-02-11T09:12:39.628Z,2.60
2019-02-11T09:15:11.981Z,2.60
2019-02-11T09:17:41.247Z,2.47
2019-02-11T09:20:11.326Z,2.77
2019-02-11T09:22:42.542Z,2.50
2019-02-11T09:25:11.820Z,2.30
2019-02-11T09:27:42.732Z,2.40
2019-02-11T09:30:16.816Z,2.40
2019-02-11T09:32:46.994Z,2.73
2019-02-11T09:35:17.803Z,2.77
2019-02-11T09:37:47.084Z,2.53
2019-02-11T09:40:16.720Z,2.20
2019-02-11T09:42:47.024Z,3.33
2019-02-11T09:45:21.876Z,2.13
2019-02-11T09:47:51.432Z,2.30
2019-02-11T09:50:23.754Z,2.90
2019-02-11T09:52:53.044Z,2.60
2019-02-11T09:55:24.706Z,2.90
2019-02-11T09:57:53.933Z,2.50
2019-02-11T10:00:23.329Z,2.83
2019-02-11T10:02:52.623Z,2.13
2019-02-11T10:05:22.193Z,2.30
2019-02-11T10:07:51.481Z,2.70
2019-02-11T10:10:20.715Z,2.20
2019-02-11T10:12:51.556Z,2.00
2019-02-11T10:15:20.809Z,2.90
2019-02-11T10:17:50.044Z,3.80
2019-02-11T10:20:19.281Z,2.70
2019-02-11T10:22:48.524Z,2.13
2019-02-11T10:25:23.731Z,2.90
2019-02-11T10:27:54.777Z,2.13
2019-02-11T10:30:24.000Z,2.37
2019-02-11T10:32:53.200Z,2.60
2019-02-11T10:35:23.418Z,2.43
2019-02-11T10:37:52.619Z,2.93
2019-02-11T10:40:21.849Z,2.37
2019-02-11T10:42:51.194Z,2.50
2019-02-11T10:45:20.448Z,2.47
2019-02-11T10:47:50.037Z,1.80
2019-02-11T10:50:19.433Z,2.10
2019-02-11T10:52:48.639Z,2.37
2019-02-11T10:55:20.500Z,1.77
2019-02-11T10:57:49.727Z,2.00
2019-02-11T11:00:21.768Z,2.20
2019-02-11T11:02:51.376Z,2.10
2019-02-11T11:05:20.580Z,2.53
2019-02-11T11:07:49.880Z,2.30
2019-02-11T11:10:39.865Z,1.73
2019-02-11T11:13:09.088Z,2.60
2019-02-11T11:15:38.289Z,2.33
2019-02-11T11:18:08.015Z,2.00
2019-02-11T11:20:37.234Z,1.90
2019-02-11T11:23:06.554Z,2.70
2019-02-11T11:25:35.829Z,2.37
2019-02-11T11:28:05.128Z,2.53
2019-02-11T11:30:34.494Z,2.53
2019-02-11T11:33:04.496Z,2.60
2019-02-11T11:35:33.745Z,2.80
2019-02-11T11:38:03.043Z,2.17
2019-02-11T11:40:32.331Z,2.77
2019-02-11T11:43:01.554Z,2.40
2019-02-11T11:45:30.816Z,2.10
2019-02-11T11:48:00.048Z,2.60
2019-02-11T11:50:29.252Z,2.40
2019-02-11T11:52:58.467Z,2.70
2019-02-11T11:55:27.845Z,2.80
2019-02-11T11:57:57.078Z,2.33
2019-02-11T12:00:30.181Z,2.07
2019-02-11T12:03:04.139Z,2.43
2019-02-11T12:05:30.387Z,2.30
2019-02-11T12:07:59.621Z,2.77
2019-02-11T12:10:28.930Z,2.73
2019-02-11T12:12:58.220Z,2.50
2019-02-11T12:15:27.796Z,2.30
2019-02-11T12:17:57.021Z,2.93
2019-02-11T12:20:26.312Z,2.90
2019-02-11T12:22:55.606Z,3.23
2019-02-11T12:25:24.832Z,2.60
2019-02-11T12:27:54.177Z,2.87
2019-02-11T12:30:27.779Z,2.33
2019-02-11T12:32:57.067Z,2.00
2019-02-11T12:35:26.721Z,1.70
2019-02-11T12:37:56.063Z,2.03
2019-02-11T12:40:25.497Z,1.80
2019-02-11T12:42:54.879Z,1.87
2019-02-11T12:45:28.132Z,2.10
2019-02-11T12:47:57.505Z,1.20
2019-02-11T12:50:26.709Z,2.20
2019-02-11T12:52:55.928Z,1.53
2019-02-11T12:55:25.196Z,2.30
2019-02-11T12:57:54.408Z,1.80
2019-02-11T13:00:24.507Z,1.80
2019-02-11T13:02:53.729Z,2.27
2019-02-11T13:05:40.260Z,2.23
2019-02-11T13:07:54.182Z,1.77
2019-02-11T13:10:23.434Z,1.70
2019-02-11T13:12:52.678Z,1.77
2019-02-11T13:15:53.278Z,1.73
2019-02-11T13:17:52.932Z,1.53
2019-02-11T13:20:22.341Z,2.03
2019-02-11T13:22:51.540Z,2.13
2019-02-11T13:25:21.843Z,1.80
2019-02-11T13:27:51.064Z,1.50
2019-02-11T13:30:23.010Z,1.70
2019-02-11T13:32:52.304Z,1.73
2019-02-11T13:35:21.616Z,1.40
2019-02-11T13:37:54.651Z,1.80
2019-02-11T13:40:21.884Z,1.47
2019-02-11T13:42:51.111Z,1.40
2019-02-11T13:45:21.311Z,1.57
2019-02-11T13:47:56.238Z,1.90
2019-02-11T13:50:26.790Z,1.90
2019-02-11T13:52:56.444Z,1.67
2019-02-11T13:55:30.044Z,1.40
2019-02-11T13:57:57.760Z,1.33
2019-02-11T14:00:34.192Z,1.70
2019-02-11T14:03:05.476Z,1.97
2019-02-11T14:05:34.799Z,1.83
2019-02-11T14:08:04.377Z,1.80
2019-02-11T14:10:33.833Z,1.77
2019-02-11T14:13:03.406Z,1.10
2019-02-11T14:15:32.670Z,1.73
2019-02-11T14:18:13.120Z,1.73
2019-02-11T14:20:37.880Z,1.60
2019-02-11T14:23:07.463Z,1.50
2019-02-11T14:25:44.271Z,1.70
2019-02-11T14:28:08.693Z,1.43
2019-02-11T14:30:37.993Z,1.80
2019-02-11T14:33:07.553Z,1.30
2019-02-11T14:35:36.990Z,1.57
2019-02-11T14:38:06.551Z,1.43
2019-02-11T14:40:36.078Z,1.67
2019-02-11T14:43:05.789Z,1.70
2019-02-11T14:45:36.319Z,1.50
2019-02-11T14:48:05.607Z,2.07
2019-02-11T14:50:35.236Z,2.53
2019-02-11T14:53:06.055Z,1.40
2019-02-11T14:55:36.563Z,1.70
2019-02-11T14:58:05.763Z,1.60
2019-02-11T15:00:34.995Z,1.83
2019-02-11T15:03:04.201Z,2.30
2019-02-11T15:05:33.450Z,1.60
2019-02-11T15:08:02.673Z,1.70
2019-02-11T15:10:31.905Z,1.80
2019-02-11T15:13:01.131Z,1.70
2019-02-11T15:15:30.347Z,1.50
2019-02-11T15:17:59.588Z,1.60
2019-02-11T15:20:30.372Z,1.90
2019-02-11T15:22:59.573Z,1.60
2019-02-11T15:25:31.045Z,1.97
2019-02-11T15:28:00.287Z,1.60
2019-02-11T15:30:29.611Z,1.90
2019-02-11T15:32:58.938Z,1.97
2019-02-11T15:35:28.232Z,2.00
2019-02-11T15:37:57.487Z,1.97
2019-02-11T15:40:26.768Z,2.00
2019-02-11T15:42:56.082Z,2.10
2019-02-11T15:45:25.360Z,2.43
2019-02-11T15:47:54.934Z,2.17
2019-02-11T15:50:24.160Z,2.40
2019-02-11T15:53:00.918Z,2.20
2019-02-11T15:55:31.949Z,2.10
2019-02-11T15:58:01.175Z,2.70
2019-02-11T16:00:30.408Z,2.07
2019-02-11T16:02:59.648Z,2.07
2019-02-11T16:05:28.870Z,2.10
2019-02-11T16:07:58.139Z,1.97
2019-02-11T16:12:53.348Z,2.10
2019-02-11T16:15:22.639Z,2.67
2019-02-11T16:17:52.187Z,3.07
2019-02-11T16:20:21.407Z,2.20
2019-02-11T16:22:53.676Z,2.20
2019-02-11T16:25:22.874Z,2.90
2019-02-11T16:27:52.217Z,3.00
2019-02-11T16:30:21.480Z,3.00
2019-02-11T16:32:50.989Z,3.40
2019-02-11T16:35:26.304Z,3.03
2019-02-11T16:37:55.527Z,3.40
2019-02-11T16:40:31.588Z,3.80
2019-02-11T16:43:00.819Z,3.73
2019-02-11T16:45:30.058Z,3.50
2019-02-11T16:47:59.252Z,4.60
2019-02-11T16:50:28.479Z,4.50
2019-02-11T16:52:57.682Z,3.87
2019-02-11T16:55:26.930Z,4.57
2019-02-11T16:57:56.216Z,4.97
2019-02-11T17:00:25.527Z,4.47
2019-02-11T17:02:54.725Z,5.40
2019-02-11T17:05:24.015Z,4.27
2019-02-11T17:07:53.215Z,4.77
2019-02-11T17:10:22.781Z,4.73
2019-02-11T17:12:51.988Z,4.50
2019-02-11T17:15:21.377Z,4.30
2019-02-11T17:17:50.618Z,5.33
2019-02-11T17:20:19.855Z,5.10
2019-02-11T17:22:49.084Z,5.20
2019-02-11T17:25:18.316Z,5.67
2019-02-11T17:27:47.540Z,5.13
2019-02-11T17:30:25.884Z,5.27
2019-02-11T17:32:55.136Z,5.10
2019-02-11T17:35:24.331Z,4.80
2019-02-11T17:37:53.570Z,5.20
2019-02-11T17:40:22.771Z,5.00
2019-02-11T17:42:52.248Z,4.70
2019-02-11T17:45:26.431Z,5.17
2019-02-11T17:47:55.727Z,5.10
2019-02-11T17:50:25.000Z,4.30
2019-02-11T17:52:57.448Z,4.40
2019-02-11T17:55:26.655Z,4.33
2019-02-11T17:57:57.500Z,4.63
2019-02-11T18:00:34.572Z,4.00
2019-02-11T18:03:03.966Z,4.13
2019-02-11T18:05:33.164Z,3.03
2019-02-11T18:08:03.558Z,4.30
2019-02-11T18:10:32.791Z,3.10
2019-02-11T18:13:02.001Z,3.97
2019-02-11T18:15:31.239Z,4.13
2019-02-11T18:18:00.863Z,4.50
2019-02-11T18:20:30.101Z,3.53
2019-02-11T18:22:59.406Z,3.80
2019-02-11T18:25:28.640Z,3.73
2019-02-11T18:27:57.856Z,4.07
2019-02-11T18:30:28.492Z,3.40
2019-02-11T18:32:57.705Z,4.30
2019-02-11T18:35:27.325Z,3.60
2019-02-11T18:37:56.549Z,3.83
2019-02-11T18:40:25.955Z,3.50
2019-02-11T18:42:55.279Z,3.63
2019-02-11T18:45:24.637Z,3.90
2019-02-11T18:47:53.935Z,4.50
2019-02-11T18:50:23.177Z,3.80
2019-02-11T18:52:52.418Z,4.30
2019-02-11T18:55:22.360Z,4.60
2019-02-11T18:57:51.671Z,4.10
2019-02-11T19:00:20.946Z,4.90
2019-02-11T19:02:50.179Z,3.50
2019-02-11T19:05:19.738Z,5.17
2019-02-11T19:07:48.945Z,4.30
2019-02-11T19:10:19.448Z,5.27
2019-02-11T19:12:48.988Z,4.70
2019-02-11T19:15:19.467Z,5.50
2019-02-11T19:17:48.681Z,5.23
2019-02-11T19:20:18.191Z,4.23
2019-02-11T19:22:47.720Z,4.03
2019-02-11T19:25:16.948Z,3.60
2019-02-11T19:27:46.174Z,4.20
2019-02-11T19:30:21.160Z,3.73
2019-02-11T19:32:50.484Z,3.70
2019-02-11T19:35:20.066Z,4.40
2019-02-11T19:37:50.702Z,3.93
2019-02-11T19:40:20.743Z,4.00
2019-02-11T19:42:49.944Z,4.20
2019-02-11T19:45:20.912Z,4.27
2019-02-11T19:47:50.290Z,4.63
2019-02-11T19:50:19.872Z,3.60
2019-02-11T19:52:49.166Z,3.30
2019-02-11T19:55:18.371Z,3.43
2019-02-11T19:57:47.599Z,3.30
2019-02-11T20:00:20.920Z,3.40
2019-02-11T20:02:51.190Z,2.83
2019-02-11T20:05:20.399Z,3.40
2019-02-11T20:07:49.638Z,3.67
2019-02-11T20:10:21.561Z,3.63
2019-02-11T20:12:50.872Z,2.70
2019-02-11T20:15:26.190Z,4.00
2019-02-11T20:17:55.397Z,3.10
2019-02-11T20:20:24.642Z,2.90
2019-02-11T20:22:54.942Z,2.83
2019-02-11T20:25:24.187Z,3.93
2019-02-11T20:27:53.759Z,2.70
2019-02-11T20:30:30.918Z,2.63
2019-02-11T20:33:00.444Z,2.40
2019-02-11T20:35:29.664Z,3.00
2019-02-11T20:37:59.121Z,2.80
2019-02-11T20:40:29.633Z,2.23
2019-02-11T20:42:58.915Z,3.60
2019-02-11T20:45:29.162Z,3.10
2019-02-11T20:47:58.384Z,2.70
2019-02-11T20:50:28.629Z,3.00
2019-02-11T20:52:57.853Z,3.87
2019-02-11T20:55:27.292Z,2.80
2019-02-11T20:57:58.746Z,3.20
2019-02-11T21:00:28.072Z,3.07
2019-02-11T21:02:57.272Z,2.80
2019-02-11T21:05:26.527Z,3.03
2019-02-11T21:07:55.782Z,3.60
2019-02-11T21:10:25.923Z,3.20
2019-02-11T21:12:55.173Z,2.40
2019-02-11T21:15:24.429Z,2.63
2019-02-11T21:17:54.768Z,3.07
2019-02-11T21:20:31.236Z,3.97
2019-02-11T21:23:01.591Z,2.80
2019-02-11T21:25:31.124Z,2.97
2019-02-11T21:28:00.756Z,3.20
2019-02-11T21:30:29.984Z,2.73
2019-02-11T21:32:59.231Z,3.53
2019-02-11T21:35:28.463Z,3.77
2019-02-11T21:37:57.664Z,3.33
2019-02-11T21:40:26.905Z,3.23
2019-02-11T21:42:56.128Z,3.83
2019-02-11T21:45:25.342Z,4.60
2019-02-11T21:47:54.565Z,3.60
2019-02-11T21:50:26.666Z,3.60
2019-02-11T21:52:54.727Z,3.43
2019-02-11T21:55:25.299Z,3.90
2019-02-11T21:57:54.568Z,4.00
2019-02-11T22:00:24.135Z,3.53
2019-02-11T22:02:53.645Z,4.67
2019-02-11T22:05:22.875Z,3.13
2019-02-11T22:07:52.077Z,3.23
2019-02-11T22:10:24.194Z,3.80
2019-02-11T22:12:53.526Z,3.33
2019-02-11T22:15:22.814Z,3.30
2019-02-11T22:17:52.413Z,3.77
2019-02-11T22:20:22.627Z,4.30
2019-02-11T22:22:51.863Z,4.03
2019-02-11T22:25:22.018Z,4.03
2019-02-11T22:27:51.259Z,3.63
2019-02-11T22:30:25.173Z,3.90
2019-02-11T22:32:55.702Z,3.30
2019-02-11T22:35:25.001Z,3.60
2019-02-11T22:37:54.292Z,3.70
2019-02-11T22:40:23.589Z,3.50
2019-02-11T22:42:53.110Z,4.00
2019-02-11T22:45:25.246Z,4.33
2019-02-11T22:47:55.518Z,4.30
2019-02-11T22:50:24.747Z,4.27
2019-02-11T22:52:55.326Z,3.80
2019-02-11T22:55:24.839Z,3.10
2019-02-11T22:57:54.104Z,4.23
2019-02-11T23:00:42.530Z,3.53
2019-02-11T23:03:11.760Z,3.43
2019-02-11T23:05:42.046Z,4.03
2019-02-11T23:08:11.439Z,3.77
2019-02-11T23:10:40.678Z,3.80
2019-02-11T23:13:09.873Z,3.87
2019-02-11T23:15:39.100Z,3.80
2019-02-11T23:18:08.306Z,3.93
2019-02-11T23:20:37.529Z,4.17
2019-02-11T23:23:06.839Z,3.80
2019-02-11T23:25:36.085Z,3.30
2019-02-11T23:28:05.309Z,4.33
2019-02-11T23:30:34.524Z,4.23
2019-02-11T23:33:03.755Z,3.93
2019-02-11T23:35:32.991Z,4.40
2019-02-11T23:38:02.234Z,4.40
2019-02-11T23:40:31.505Z,4.00
2019-02-11T23:43:00.735Z,4.27
2019-02-11T23:45:29.959Z,3.50
2019-02-11T23:47:59.419Z,3.73
2019-02-11T23:50:28.724Z,4.50
2019-02-11T23:52:57.968Z,4.20
2019-02-11T23:55:27.381Z,3.70
2019-02-11T23:57:56.584Z,4.17
